»·PEaware :: N217FU KSBP-KSBP

N217FU :: KSBP-KSBP

FLIGHT INFORMATION

Flight Status: Arrived
Operator: Privately registered:
United States
More flights under this callsign
Pilot: Christopher D. (33180)
Aircraft: CESSNA 172 SKYHAWK
(C172)
More flights by this aircraft type
Origin: KSBP San Luis Co Regl
United States
Destination: KSBP San Luis Co Regl
United States
More flights between these airports :: More routes between these airports
Route:
File this flight plan on PilotEdge
Remarks:
Altitude:
(Current/Filed)
1,200ft
Speed:
(Current/Filed)
100kts
Departed: 11-Jan-21 11:46 AM
Arrived: 11-Jan-21 12:01 PM
Distance/Time
Traveled:
6876nm/0:15
Distance/Time
To Go:
Arrived

Flight Plot

Page will automatically refresh every two minutes.


Map Options




Map Legend


Flown Route
Filed Route
Departure Airport
Arrival Airport
Navaid (VOR, NDB)
Fix

Horizontal Profiles

Position Reports

Time Latitude Longitude Heading Altitude Ground
Speed
11-Jan-21 11:24 0.000408 0.013975 359 3ft 0kts
11-Jan-21 11:26 0.000408 0.013975 359 3ft 0kts
11-Jan-21 11:26 35.237847 -120.647311 94 182ft 0kts
11-Jan-21 11:27 35.237847 -120.647311 94 176ft 0kts
11-Jan-21 11:29 35.237847 -120.647311 94 176ft 0kts
11-Jan-21 11:29 35.237847 -120.647311 94 176ft 0kts
11-Jan-21 11:30 35.237847 -120.647311 94 176ft 0kts
11-Jan-21 11:31 35.237847 -120.647311 94 176ft 0kts
11-Jan-21 11:32 35.237847 -120.647311 94 176ft 0kts
11-Jan-21 11:33 35.237847 -120.647311 94 176ft 0kts
11-Jan-21 11:34 35.237847 -120.647311 94 176ft 0kts
11-Jan-21 11:35 35.237847 -120.647311 94 176ft 0kts
11-Jan-21 11:36 35.237847 -120.647311 94 176ft 0kts
11-Jan-21 11:37 35.237847 -120.647311 94 176ft 0kts
11-Jan-21 11:38 35.237847 -120.647311 94 176ft 0kts
11-Jan-21 11:39 35.237847 -120.647311 94 176ft 0kts
11-Jan-21 11:40 35.237418 -120.645875 88 181ft 15kts
11-Jan-21 11:41 35.237745 -120.640692 110 193ft 5kts
11-Jan-21 11:42 35.234745 -120.634507 124 210ft 31kts
11-Jan-21 11:43 35.234176 -120.634005 210 212ft 0kts
11-Jan-21 11:44 35.234242 -120.635614 305 207ft 39kts
11-Jan-21 11:45 35.245473 -120.657778 260 942ft 64kts
11-Jan-21 11:46 35.228603 -120.650860 118 1485ft 94kts
11-Jan-21 11:47 35.211101 -120.625373 134 1029ft 94kts
11-Jan-21 11:48 35.225384 -120.622103 317 634ft 80kts
11-Jan-21 11:49 35.236985 -120.640345 304 195ft 80kts
11-Jan-21 11:50 35.249296 -120.665975 246 1020ft 80kts
11-Jan-21 11:51 35.229084 -120.660466 122 1459ft 100kts
11-Jan-21 11:52 35.212165 -120.633603 130 1241ft 93kts
11-Jan-21 11:53 35.220828 -120.615906 339 840ft 76kts
11-Jan-21 11:54 35.233529 -120.634561 305 214ft 62kts
11-Jan-21 11:55 35.246617 -120.655861 306 776ft 81kts
11-Jan-21 11:56 35.230888 -120.662852 105 1413ft 97kts
11-Jan-21 11:57 35.216311 -120.632920 118 1450ft 96kts
11-Jan-21 11:58 35.217840 -120.609376 356 932ft 81kts
11-Jan-21 11:59 35.230966 -120.629904 304 309ft 70kts
11-Jan-21 12:00 35.237504 -120.641085 331 193ft 11kts
11-Jan-21 12:01 35.237794 -120.640488 85 193ft 0kts
11-Jan-21 12:02 35.238404 -120.639799 20 193ft 0kts
11-Jan-21 12:03 35.238404 -120.639798 20 193ft 0kts
11-Jan-21 12:04 35.238404 -120.639799 20 193ft 0kts
11-Jan-21 12:05 35.238404 -120.639798 20 193ft 0kts
11-Jan-21 12:06 35.238404 -120.639799 20 193ft 0kts
11-Jan-21 12:07 0.000000 0.000000 0 0ft 0kts
11-Jan-21 12:08 0.000000 0.000000 0 0ft 0kts
11-Jan-21 12:09 0.000000 0.000000 0 0ft 0kts
11-Jan-21 12:10 0.000000 0.000000 0 0ft 0kts
11-Jan-21 12:11 0.000000 0.000000 0 0ft 0kts
11-Jan-21 12:12 0.000000 0.000000 0 0ft 0kts
11-Jan-21 12:13 0.000000 0.000000 0 0ft 0kts
11-Jan-21 12:14 0.000000 0.000000 0 0ft 0kts

Navigation Log

Ident Type
Flight plan parsing failed, navigation log unavailable